createdAt,value
2023-12-26T00:02:11.174Z,1.00
2023-12-26T00:07:14.390Z,0.90
2023-12-26T00:12:19.192Z,0.80
2023-12-26T00:17:22.660Z,0.83
2023-12-26T00:22:25.863Z,0.90
2023-12-26T00:27:30.503Z,1.00
2023-12-26T00:32:34.475Z,1.10
2023-12-26T00:37:41.284Z,1.13
2023-12-26T00:42:56.024Z,1.10
2023-12-26T00:48:00.540Z,1.30
2023-12-26T00:53:05.027Z,1.40
2023-12-26T00:58:09.685Z,1.23
2023-12-26T01:03:13.761Z,1.10
2023-12-26T01:08:18.037Z,2.23
2023-12-26T01:13:22.585Z,1.10
2023-12-26T01:18:26.606Z,1.00
2023-12-26T01:23:29.950Z,1.03
2023-12-26T01:28:34.377Z,0.77
2023-12-26T01:33:37.630Z,0.70
2023-12-26T01:38:40.983Z,0.70
2023-12-26T01:43:45.482Z,0.73
2023-12-26T01:48:52.559Z,0.90
2023-12-26T01:53:56.195Z,0.83
2023-12-26T01:59:01.648Z,0.90
2023-12-26T02:04:05.317Z,1.00
2023-12-26T02:09:11.855Z,1.70
2023-12-26T02:14:16.678Z,1.00
2023-12-26T02:19:20.374Z,1.03
2023-12-26T02:24:25.085Z,1.43
2023-12-26T02:29:29.500Z,1.17
2023-12-26T02:34:33.137Z,1.10
2023-12-26T02:39:38.130Z,1.10
2023-12-26T02:44:41.385Z,1.60
2023-12-26T02:49:44.955Z,1.53
2023-12-26T02:54:49.863Z,1.20
2023-12-26T02:59:53.060Z,1.27
2023-12-26T03:04:56.236Z,1.20
2023-12-26T03:10:04.972Z,1.53
2023-12-26T03:15:09.324Z,1.40
2023-12-26T03:20:13.381Z,1.00
2023-12-26T03:25:18.116Z,1.10
2023-12-26T03:30:21.601Z,1.77
2023-12-26T03:35:24.934Z,1.00
2023-12-26T03:40:29.513Z,0.93
2023-12-26T03:45:33.835Z,0.93
2023-12-26T03:50:37.267Z,1.23
2023-12-26T03:55:42.980Z,1.10
2023-12-26T04:00:46.474Z,0.90
2023-12-26T04:05:50.139Z,1.00
2023-12-26T04:10:55.045Z,1.30
2023-12-26T04:15:58.424Z,0.70
2023-12-26T04:21:02.175Z,1.20
2023-12-26T04:26:09.605Z,1.20
2023-12-26T04:31:13.140Z,1.77
2023-12-26T04:36:16.547Z,1.30
2023-12-26T04:41:21.445Z,1.20
2023-12-26T04:46:25.093Z,1.47
2023-12-26T04:51:30.967Z,1.00
2023-12-26T04:56:37.574Z,1.77
2023-12-26T05:01:43.691Z,1.30
2023-12-26T05:06:47.550Z,1.10
2023-12-26T05:11:53.113Z,1.03
2023-12-26T05:16:56.432Z,1.00
2023-12-26T05:21:59.722Z,1.20
2023-12-26T05:27:07.428Z,1.27
2023-12-26T05:32:10.854Z,1.23
2023-12-26T05:37:14.285Z,1.30
2023-12-26T05:42:19.621Z,1.73
2023-12-26T05:47:23.094Z,1.27
2023-12-26T05:52:26.481Z,1.10
2023-12-26T05:57:31.234Z,1.17
2023-12-26T06:02:35.766Z,1.27
2023-12-26T06:07:41.978Z,1.60
2023-12-26T06:12:46.778Z,1.30
2023-12-26T06:17:50.341Z,1.80
2023-12-26T06:22:53.947Z,1.40
2023-12-26T06:27:58.862Z,1.17
2023-12-26T06:33:02.698Z,1.10
2023-12-26T06:38:13.194Z,1.10
2023-12-26T06:43:17.886Z,1.10
2023-12-26T06:48:21.468Z,1.77
2023-12-26T06:53:24.945Z,1.40
2023-12-26T06:58:29.721Z,1.57
2023-12-26T07:03:33.392Z,1.43
2023-12-26T07:08:38.487Z,1.60
2023-12-26T07:13:42.995Z,1.43
2023-12-26T07:18:46.546Z,1.23
2023-12-26T07:23:49.830Z,1.20
2023-12-26T07:28:54.639Z,1.27
2023-12-26T07:34:00.592Z,1.30
2023-12-26T07:39:04.319Z,1.30
2023-12-26T07:44:11.636Z,1.10
2023-12-26T07:49:15.688Z,1.37
2023-12-26T07:54:19.020Z,1.77
2023-12-26T07:59:23.548Z,1.20
2023-12-26T08:04:26.822Z,1.30
2023-12-26T08:09:30.175Z,1.20
2023-12-26T08:14:34.854Z,1.30
2023-12-26T08:19:39.141Z,1.27
2023-12-26T08:24:42.440Z,1.10
2023-12-26T08:29:47.112Z,1.73
2023-12-26T08:34:50.375Z,1.43
2023-12-26T08:39:53.546Z,1.97
2023-12-26T08:44:58.248Z,1.27
2023-12-26T08:50:03.723Z,1.60
2023-12-26T08:55:07.797Z,1.60
2023-12-26T09:00:15.500Z,1.47
2023-12-26T09:05:18.817Z,1.37
2023-12-26T09:10:21.991Z,1.83
2023-12-26T09:15:26.617Z,1.63
2023-12-26T09:20:30.302Z,2.07
2023-12-26T09:25:33.633Z,1.23
2023-12-26T09:30:38.997Z,2.47
2023-12-26T09:35:43.620Z,1.90
2023-12-26T09:40:48.561Z,1.33
2023-12-26T09:45:53.281Z,1.40
2023-12-26T09:50:58.369Z,1.40
2023-12-26T09:56:02.689Z,1.40
2023-12-26T10:01:08.071Z,1.33
2023-12-26T10:06:11.339Z,1.60
2023-12-26T10:11:15.631Z,1.73
2023-12-26T10:16:20.509Z,1.33
2023-12-26T10:21:23.864Z,1.93
2023-12-26T10:26:27.121Z,1.27
2023-12-26T10:31:34.334Z,1.70
2023-12-26T10:36:43.522Z,1.37
2023-12-26T10:41:48.131Z,1.60
2023-12-26T10:46:53.292Z,1.70
2023-12-26T10:52:00.587Z,1.37
2023-12-26T10:57:04.078Z,1.20
2023-12-26T11:03:02.055Z,2.17
2023-12-26T11:09:19.195Z,1.57
2023-12-26T11:15:36.262Z,1.80
2023-12-26T11:21:52.749Z,1.67
2023-12-26T11:28:09.798Z,1.57
2023-12-26T11:34:28.460Z,1.90
2023-12-26T11:40:45.202Z,1.60
2023-12-26T11:47:01.551Z,1.77
2023-12-26T11:53:17.955Z,1.63
2023-12-26T11:59:35.077Z,1.77
2023-12-26T12:05:51.594Z,1.60
2023-12-26T12:12:08.842Z,1.90
2023-12-26T12:18:26.056Z,1.33
2023-12-26T12:24:43.007Z,1.63
2023-12-26T12:30:59.584Z,1.60
2023-12-26T12:37:16.501Z,2.47
2023-12-26T12:43:32.985Z,1.40
2023-12-26T12:49:49.537Z,1.67
2023-12-26T12:56:06.175Z,1.40
2023-12-26T13:02:22.936Z,2.77
2023-12-26T13:08:39.865Z,1.40
2023-12-26T13:14:56.599Z,1.30
2023-12-26T13:21:13.057Z,1.47
2023-12-26T13:27:29.631Z,1.20
2023-12-26T13:33:46.822Z,1.70
2023-12-26T13:40:03.969Z,1.30
2023-12-26T13:46:20.288Z,1.23
2023-12-26T13:51:45.633Z,1.20
2023-12-26T13:56:49.483Z,1.90
2023-12-26T14:01:52.606Z,1.00
2023-12-26T14:06:57.519Z,1.00
2023-12-26T14:12:00.814Z,1.40
2023-12-26T14:17:03.997Z,1.13
2023-12-26T14:22:08.944Z,1.10
2023-12-26T14:27:12.038Z,1.27
2023-12-26T14:32:15.256Z,1.50
2023-12-26T14:37:39.104Z,1.30
2023-12-26T14:42:42.674Z,1.67
2023-12-26T14:47:45.958Z,1.63
2023-12-26T14:52:50.484Z,1.30
2023-12-26T14:57:53.591Z,1.10
2023-12-26T15:02:57.175Z,1.60
2023-12-26T15:08:02.403Z,1.40
2023-12-26T15:13:06.194Z,0.97
2023-12-26T15:18:09.627Z,1.20
2023-12-26T15:23:14.402Z,1.50
2023-12-26T15:28:17.813Z,1.20
2023-12-26T15:33:22.407Z,1.60
2023-12-26T15:38:27.274Z,1.40
2023-12-26T15:43:30.385Z,1.30
2023-12-26T15:48:33.670Z,1.30
2023-12-26T15:53:38.321Z,0.90
2023-12-26T15:58:41.531Z,1.73
2023-12-26T16:03:45.165Z,1.10
2023-12-26T16:08:50.221Z,1.47
2023-12-26T16:13:54.018Z,1.20
2023-12-26T16:18:57.786Z,1.73
2023-12-26T16:24:02.858Z,1.50
2023-12-26T16:29:06.300Z,1.70
2023-12-26T16:34:09.716Z,1.40
2023-12-26T16:39:14.838Z,2.33
2023-12-26T16:44:18.107Z,1.90
2023-12-26T16:49:21.661Z,1.50
2023-12-26T16:54:26.623Z,1.80
2023-12-26T16:59:30.939Z,1.90
2023-12-26T17:04:34.412Z,2.10
2023-12-26T17:09:42.765Z,2.37
2023-12-26T17:14:46.077Z,3.40
2023-12-26T17:19:50.390Z,2.50
2023-12-26T17:24:55.279Z,2.40
2023-12-26T17:29:58.479Z,1.90
2023-12-26T17:35:02.195Z,1.83
2023-12-26T17:40:08.094Z,1.90
2023-12-26T17:45:12.507Z,1.87
2023-12-26T17:50:16.100Z,1.30
2023-12-26T17:55:20.851Z,1.80
2023-12-26T18:00:24.133Z,1.90
2023-12-26T18:05:27.357Z,1.80
2023-12-26T18:10:31.946Z,6.93
2023-12-26T18:15:35.313Z,7.27
2023-12-26T18:20:38.651Z,4.47
2023-12-26T18:25:43.456Z,2.40
2023-12-26T18:30:47.885Z,2.67
2023-12-26T18:35:51.251Z,3.60
2023-12-26T18:40:56.498Z,2.70
2023-12-26T18:45:59.697Z,3.03
2023-12-26T18:51:03.363Z,3.33
2023-12-26T18:56:14.768Z,2.97
2023-12-26T19:01:18.071Z,2.60
2023-12-26T19:06:21.424Z,2.70
2023-12-26T19:11:26.126Z,2.77
2023-12-26T19:16:29.563Z,3.10
2023-12-26T19:21:32.991Z,3.03
2023-12-26T19:26:37.624Z,3.10
2023-12-26T19:31:41.294Z,2.83
2023-12-26T19:36:47.023Z,3.23
2023-12-26T19:41:51.584Z,2.50
2023-12-26T19:46:54.740Z,3.40
2023-12-26T19:51:57.918Z,2.80
2023-12-26T19:57:02.690Z,2.60
2023-12-26T20:02:07.352Z,2.90
2023-12-26T20:07:10.595Z,2.30
2023-12-26T20:12:15.269Z,2.50
2023-12-26T20:17:18.518Z,2.20
2023-12-26T20:22:21.844Z,1.97
2023-12-26T20:27:26.389Z,1.80
2023-12-26T20:32:29.543Z,2.13
2023-12-26T20:37:32.801Z,1.80
2023-12-26T20:42:38.220Z,2.00
2023-12-26T20:47:41.599Z,1.80
2023-12-26T20:52:45.084Z,6.93
2023-12-26T20:57:49.632Z,4.60
2023-12-26T21:02:52.952Z,3.53
2023-12-26T21:07:56.313Z,3.57
2023-12-26T21:13:02.441Z,4.30
2023-12-26T21:18:07.322Z,4.00
2023-12-26T21:23:10.593Z,3.30
2023-12-26T21:28:15.550Z,3.57
2023-12-26T21:33:18.893Z,3.23
2023-12-26T21:38:22.223Z,3.50
2023-12-26T21:43:26.854Z,4.00
2023-12-26T21:48:30.525Z,3.30
2023-12-26T21:53:34.014Z,4.57
2023-12-26T21:58:38.925Z,4.90
2023-12-26T22:03:43.562Z,4.37
2023-12-26T22:08:46.801Z,4.67
2023-12-26T22:13:54.200Z,3.60
2023-12-26T22:18:58.334Z,4.37
2023-12-26T22:24:03.161Z,3.50
2023-12-26T22:29:08.442Z,3.83
2023-12-26T22:34:13.456Z,3.93
2023-12-26T22:39:16.822Z,4.20
2023-12-26T22:44:21.722Z,4.33
2023-12-26T22:49:25.033Z,4.20
2023-12-26T22:54:28.325Z,3.80
2023-12-26T22:59:32.964Z,3.97
2023-12-26T23:04:39.685Z,4.80
2023-12-26T23:09:42.742Z,4.80
2023-12-26T23:14:47.578Z,4.20
2023-12-26T23:19:50.866Z,4.60
2023-12-26T23:24:54.206Z,4.20
2023-12-26T23:29:58.805Z,4.20
2023-12-26T23:35:02.218Z,3.80
2023-12-26T23:40:06.106Z,4.23
2023-12-26T23:45:10.933Z,4.47
2023-12-26T23:50:13.994Z,3.43
2023-12-26T23:55:17.174Z,3.57
